General Aviation Weather

Text Reports

Enter one or more of the following location identifiers separated by a space:

Zip Code, Four-Character ICAO or Three-Character IATA airport codes.

METAR - Aviation Routine Weather Report
KBIV - Holland, Michigan
Updated at 4:53 AM GMT on July 08, 2015 (12:53 AM EDT):
METAR KBIV 080453Z AUTO 02004KT 10SM CLR 14/09 A3010 RMK AO2 SLP192 T01390094 402500139
TAF - Terminal Area Forecast
KBIV - Holland, Michigan
Updated at 4:53 AM GMT on July 08, 2015 (12:53 AM EDT):
No TAF is currently available for this location.
Decoded:
No decoded TAF is available.
PIREP - Pilot Weather Report
KBIV - Holland, Michigan
Updated at 4:53 AM GMT on July 08, 2015 (12:53 AM EDT):
No PIREP is currently available for this location.
AIRMET - Airmens Meteorological Information
KBIV - Holland, Michigan
Updated at 4:53 AM GMT on July 08, 2015 (12:53 AM EDT):
No AIRMET is currently available for this location.
SIGMET - Significant Meteorological Information
KBIV - Holland, Michigan
Updated at 4:53 AM GMT on July 08, 2015 (12:53 AM EDT):
No SIGMET is currently available for this location.
NOTAM - Notice to Airmen
KBIV - Holland, Michigan
Updated at 4:53 AM GMT on July 08, 2015 (12:53 AM EDT):
No NOTAM is currently available for this location.
Forecast Area
KBIV - Holland, Michigan
Updated at 4:53 AM GMT on July 08, 2015 (12:53 AM EDT):
No NOTAM is currently available for this location.
Aviation Weather Maps